PWSweather.com
Personal Weather Stations
Station Observations
KFLCAPE1
Cape Harbour, Cape Coral, FL 33914

Cape HarbourCape Coral, FL 33914

Lat: 26.55, Lon: -82.01

Elevation: 13

Station Type: Davis Vantage Pro2

http://www.capeweather.com

Latest ConditionsUpdated 2:35:26 AM EST Friday, Jan 19, 2018
Currently Today's Max Today's Min Today's Average
Temperature 43.1°F6.2°C 44.1°F6.7°C 43.1°F6.2°C 43.6°F6.4°C
Dew Point 36.7°F2.6°C 37.0°F2.8°C 35.0°F1.7°C 36.2°F2.3°C
Winds 6.0 mph NE9.7 kmh NE 7.0 mph NE11.3 kmh NE - 3.8 mph 6.1 kmh
Wind Gusts 6.0 mph9.7 kmh 10.0 mph16.1 kmh - -
Humidity 78% 78% 70% 75%
Pressure 30.28 in1025.4 mb 30.32 in1026.8 mb 30.28 in1025.4 mb -
Hour Temp Dew Point Humidity Winds Wind Gusts Pressure Precip Precip Rate Daily Precip Total
02:35 AM 43.1°F6.2°C 36.7°F2.6°C 78% 6.0 mph NE9.7 kmh NE 6.0 mph9.7 kmh 30.28 in1025.4 mb 0.00 in0.0 mm 0.00 in0.0 mm 0.00 in0.0 mm
02:30 AM 43.2°F6.2°C 36.8°F2.7°C 78% 5.0 mph NE8.0 kmh NE 6.0 mph9.7 kmh 30.28 in1025.4 mb 0.00 in0.0 mm 0.00 in0.0 mm 0.00 in0.0 mm
02:29 AM 43.2°F6.2°C 36.8°F2.7°C 78% 5.0 mph NE8.0 kmh NE 6.0 mph9.7 kmh 30.28 in1025.4 mb 0.00 in0.0 mm 0.00 in0.0 mm 0.00 in0.0 mm
02:25 AM 43.2°F6.2°C 36.8°F2.7°C 78% 6.0 mph NE9.7 kmh NE 9.0 mph14.5 kmh 30.28 in1025.4 mb 0.00 in0.0 mm 0.00 in0.0 mm 0.00 in0.0 mm
02:20 AM 43.2°F6.2°C 36.8°F2.7°C 78% 4.0 mph NNE6.4 kmh NNE 5.0 mph8.0 kmh 30.29 in1025.7 mb 0.00 in0.0 mm 0.00 in0.0 mm 0.00 in0.0 mm
02:15 AM 43.3°F6.3°C 36.9°F2.7°C 78% 4.0 mph NE6.4 kmh NE 8.0 mph12.9 kmh 30.29 in1025.7 mb 0.00 in0.0 mm 0.00 in0.0 mm 0.00 in0.0 mm
02:10 AM 43.3°F6.3°C 36.9°F2.7°C 78% 5.0 mph NE8.0 kmh NE 8.0 mph12.9 kmh 30.28 in1025.4 mb 0.00 in0.0 mm 0.00 in0.0 mm 0.00 in0.0 mm
02:05 AM 43.4°F6.3°C 37.0°F2.8°C 78% 6.0 mph NNE9.7 kmh NNE 8.0 mph12.9 kmh 30.29 in1025.7 mb 0.00 in0.0 mm 0.00 in0.0 mm 0.00 in0.0 mm
02:00 AM 43.4°F6.3°C 36.7°F2.6°C 77% 5.0 mph NE8.0 kmh NE 8.0 mph12.9 kmh 30.29 in1025.7 mb 0.00 in0.0 mm 0.00 in0.0 mm 0.00 in0.0 mm
01:55 AM 43.4°F6.3°C 36.7°F2.6°C 77% 7.0 mph NE11.3 kmh NE 7.0 mph11.3 kmh 30.29 in1025.7 mb 0.00 in0.0 mm 0.00 in0.0 mm 0.00 in0.0 mm
01:50 AM 43.4°F6.3°C 36.7°F2.6°C 77% 6.0 mph NE9.7 kmh NE 7.0 mph11.3 kmh 30.29 in1025.7 mb 0.00 in0.0 mm 0.00 in0.0 mm 0.00 in0.0 mm
01:45 AM 43.4°F6.3°C 36.7°F2.6°C 77% 6.0 mph E9.7 kmh E 10.0 mph16.1 kmh 30.29 in1025.7 mb 0.00 in0.0 mm 0.00 in0.0 mm 0.00 in0.0 mm
01:40 AM 43.4°F6.3°C 36.7°F2.6°C 77% 3.0 mph NE4.8 kmh NE 6.0 mph9.7 kmh 30.29 in1025.7 mb 0.00 in0.0 mm 0.00 in0.0 mm 0.00 in0.0 mm
01:35 AM 43.4°F6.3°C 36.4°F2.4°C 76% 7.0 mph NE11.3 kmh NE 7.0 mph11.3 kmh 30.30 in1026.1 mb 0.00 in0.0 mm 0.00 in0.0 mm 0.00 in0.0 mm
01:30 AM 43.5°F6.4°C 36.8°F2.7°C 77% 3.0 mph NE4.8 kmh NE 5.0 mph8.0 kmh 30.30 in1026.1 mb 0.00 in0.0 mm 0.00 in0.0 mm 0.00 in0.0 mm
01:25 AM 43.5°F6.4°C 36.5°F2.5°C 76% 7.0 mph NE11.3 kmh NE 7.0 mph11.3 kmh 30.29 in1025.7 mb 0.00 in0.0 mm 0.00 in0.0 mm 0.00 in0.0 mm
01:20 AM 43.5°F6.4°C 36.5°F2.5°C 76% 2.0 mph NE3.2 kmh NE 5.0 mph8.0 kmh 30.30 in1026.1 mb 0.00 in0.0 mm 0.00 in0.0 mm 0.00 in0.0 mm
01:15 AM 43.6°F6.4°C 36.6°F2.6°C 76% 4.0 mph NE6.4 kmh NE 5.0 mph8.0 kmh 30.30 in1026.1 mb 0.00 in0.0 mm 0.00 in0.0 mm 0.00 in0.0 mm
01:10 AM 43.6°F6.4°C 36.2°F2.3°C 75% 2.0 mph NE3.2 kmh NE 5.0 mph8.0 kmh 30.30 in1026.1 mb 0.00 in0.0 mm 0.00 in0.0 mm 0.00 in0.0 mm
01:05 AM 43.6°F6.4°C 35.9°F2.2°C 74% 1.0 mph NE1.6 kmh NE 3.0 mph4.8 kmh 30.30 in1026.1 mb 0.00 in0.0 mm 0.00 in0.0 mm 0.00 in0.0 mm
01:00 AM 43.7°F6.5°C 36.0°F2.2°C 74% 2.0 mph NE3.2 kmh NE 5.0 mph8.0 kmh 30.30 in1026.1 mb 0.00 in0.0 mm 0.00 in0.0 mm 0.00 in0.0 mm
12:55 AM 43.7°F6.5°C 36.0°F2.2°C 74% 2.0 mph NE3.2 kmh NE 3.0 mph4.8 kmh 30.31 in1026.4 mb 0.00 in0.0 mm 0.00 in0.0 mm 0.00 in0.0 mm
12:50 AM 43.7°F6.5°C 35.6°F2.0°C 73% 3.0 mph NE4.8 kmh NE 3.0 mph4.8 kmh 30.31 in1026.4 mb 0.00 in0.0 mm 0.00 in0.0 mm 0.00 in0.0 mm
12:45 AM 43.7°F6.5°C 35.6°F2.0°C 73% 4.0 mph NE6.4 kmh NE 4.0 mph6.4 kmh 30.31 in1026.4 mb 0.00 in0.0 mm 0.00 in0.0 mm 0.00 in0.0 mm
12:40 AM 43.8°F6.6°C 35.7°F2.1°C 73% 3.0 mph NE4.8 kmh NE 5.0 mph8.0 kmh 30.31 in1026.4 mb 0.00 in0.0 mm 0.00 in0.0 mm 0.00 in0.0 mm
12:35 AM 43.8°F6.6°C 35.7°F2.1°C 73% 2.0 mph NE3.2 kmh NE 3.0 mph4.8 kmh 30.31 in1026.4 mb 0.00 in0.0 mm 0.00 in0.0 mm 0.00 in0.0 mm
12:30 AM 43.9°F6.6°C 35.5°F1.9°C 72% 3.0 mph NE4.8 kmh NE 3.0 mph4.8 kmh 30.32 in1026.8 mb 0.00 in0.0 mm 0.00 in0.0 mm 0.00 in0.0 mm
12:29 AM 43.9°F6.6°C 35.5°F1.9°C 72% 2.0 mph NE3.2 kmh NE 3.0 mph4.8 kmh 30.32 in1026.8 mb 0.00 in0.0 mm 0.00 in0.0 mm 0.00 in0.0 mm
12:25 AM 43.9°F6.6°C 35.5°F1.9°C 72% 3.0 mph NE4.8 kmh NE 4.0 mph6.4 kmh 30.32 in1026.8 mb 0.00 in0.0 mm 0.00 in0.0 mm 0.00 in0.0 mm
12:20 AM 44.0°F6.7°C 35.6°F2.0°C 72% 3.0 mph NE4.8 kmh NE 5.0 mph8.0 kmh 30.32 in1026.8 mb 0.00 in0.0 mm 0.00 in0.0 mm 0.00 in0.0 mm
12:15 AM 44.0°F6.7°C 35.2°F1.8°C 71% 1.0 mph NE1.6 kmh NE 3.0 mph4.8 kmh 30.31 in1026.4 mb 0.00 in0.0 mm 0.00 in0.0 mm 0.00 in0.0 mm
12:10 AM 44.1°F6.7°C 35.0°F1.7°C 70% 3.0 mph NE4.8 kmh NE 5.0 mph8.0 kmh 30.32 in1026.8 mb 0.00 in0.0 mm 0.00 in0.0 mm 0.00 in0.0 mm
12:05 AM 44.1°F6.7°C 35.0°F1.7°C 70% 2.0 mph NE3.2 kmh NE 3.0 mph4.8 kmh 30.32 in1026.8 mb 0.00 in0.0 mm 0.00 in0.0 mm 0.00 in0.0 mm